Nye, MT

7:56 PM MDT on September 15, 2014 (GMT -0600)
Cathedral Mountain Ranch | Change Station
CLOSE
Current Station
Personal Weather Station
Location: Nye, MT
Elevation: 5259 ft
Nearby Weather Stations

Elev 5259 ft 45.41 °N, 109.87 °W | Updated 1 minute ago

Clear
Clear
61.8 °F
Feels Like 61.8 °F
N
2.0
Wind Variable Wind from NW
Gusts 2.0 mph

Today
High -- | Low -- °F
--% Chance of Precip.
Yesterday
High -- | Low -- °F
Precip. -- in
6:57 AM 7:30 PM
Waning Gibbous, 50% visible
Pressure 30.01 in
Visibility 10.0 miles
Clouds Clear
Dew Point 42 °F
Humidity 49%
Rainfall 0.00 in
Snow Depth 0 in , 0 in , 0 in
UV 0 out of 12
Pollen 6.10 out of 12
Air Quality Not available.
Flu Activity Not available.
METAR KLVM 160053Z AUTO 20005KT 10SM CLR 23/M02 A3007 RMK AO2 SLP162 T02281017

More Conditions Fewer Conditions

Pressure 30.01 in
Visibility 10.0 miles
Clouds Clear
Dew Point 42 °F
Humidity 49%
Rainfall 0.00 in
Snow Depth 0 in , 0 in , 0 in
UV 0 out of 12
Pollen 6.10 out of 12
Air Quality Not available.
Flu Activity Not available.
METAR KLVM 160053Z AUTO 20005KT 10SM CLR 23/M02 A3007 RMK AO2 SLP162 T02281017

More Conditions Fewer Conditions

10-Day Weather Forecast

Almanac

Astronomy

Sep. 15, 2014 Rise Set
Actual Time 6:57 AM MDT 7:30 PM MDT
Civil Twilight 6:28 AM MDT 7:59 PM MDT
Nautical Twilight 5:52 AM MDT 8:35 PM MDT
Astronomical Twilight 5:16 AM MDT 9:11 PM MDT
Moon 11:59 PM MDT (9/15) 2:18 PM MDT (9/15)
Length of Visible Light 13h 31m
Length of Day
12h 32m
Tomorrow will be 3m 9s shorter.
Waning Gibbous, 50% of the Moon is Illuminated
Today
Waning Gibbous
Sep 15
Last Quarter
Sep 24
New
Oct 1
First Quarter
Oct 8
Full

Today's Extremes

State Highs State Lows

Community

WunderPhotos

Upload Photos

1,753,643 photos uploaded!

WunderBlogs® & News

Nearby

Snow Depth

Station Depth Elevation
Emery Creek 1 in 4350 ft
Short Creek 0 in 7000 ft
Lone Mountain 0 in 8880 ft
Black Bear 0 in 8150 ft
Shower Falls 0 in 8100 ft

Earthquake Activity

City Distance Mag. Time & Date
No recent earthquake activity has been reported nearby.
Minimum magnitude displayed is 2.5.

Coastal Water Temperatures

Place Temperature
No Stations Reporting

Nearby Weather Stations